SKW4937 KDFW-KNYL
Flight info
| Callsign | SKW4937 |
|---|---|
| Flight time | N/A |
| Altitude | 36000 |
| Route | WSTEX2 CIKAN EWM SSO J50 GBN J2 BZA |
| Aircraft | CRJ7/M-SDFGIRWY/S |
Departure
| Time | 2026-05-01 14:36 |
|---|---|
| Airport | Dallas Fort Worth International Airport (KDFW) |
Arrival
| Time | N/A |
|---|---|
| Airport | Yuma International Airport / Marine Corps Air Station Yuma (KNYL) |
| Time | Latitude | Longitude | Altitude | Speed | Heading |
|---|---|---|---|---|---|
| 2026-05-01 14:09 | 32.88712 | -97.03429 | 571 ft | 0 kts | 350° |
| 2026-05-01 14:27 | 32.88708 | -97.03429 | 582 ft | 3 kts | 349° |
| 2026-05-01 14:28 | 32.88665 | -97.03400 | 582 ft | 2 kts | 306° |
| 2026-05-01 14:28 | 32.88664 | -97.03399 | 582 ft | 0 kts | 305° |
| 2026-05-01 14:30 | 32.88668 | -97.03418 | 582 ft | 3 kts | 243° |
| 2026-05-01 14:31 | 32.88579 | -97.03490 | 581 ft | 10 kts | 186° |
| 2026-05-01 14:31 | 32.88500 | -97.03484 | 577 ft | 11 kts | 143° |
| 2026-05-01 14:31 | 32.88499 | -97.03422 | 579 ft | 9 kts | 85° |
| 2026-05-01 14:31 | 32.88498 | -97.03326 | 574 ft | 13 kts | 96° |
| 2026-05-01 14:32 | 32.88447 | -97.03288 | 576 ft | 9 kts | 178° |
| 2026-05-01 14:32 | 32.88391 | -97.03288 | 575 ft | 8 kts | 182° |
| 2026-05-01 14:32 | 32.88335 | -97.03288 | 577 ft | 10 kts | 180° |
| 2026-05-01 14:32 | 32.88243 | -97.03289 | 574 ft | 16 kts | 180° |
| 2026-05-01 14:33 | 32.88131 | -97.03290 | 575 ft | 16 kts | 180° |
| 2026-05-01 14:33 | 32.88029 | -97.03290 | 575 ft | 13 kts | 179° |
| 2026-05-01 14:33 | 32.87978 | -97.03236 | 580 ft | 10 kts | 92° |
| 2026-05-01 14:33 | 32.87977 | -97.03148 | 579 ft | 10 kts | 90° |
| 2026-05-01 14:34 | 32.87977 | -97.03133 | 577 ft | 0 kts | 89° |
| 2026-05-01 14:34 | 32.87977 | -97.03118 | 578 ft | 7 kts | 90° |
| 2026-05-01 14:34 | 32.87991 | -97.03029 | 574 ft | 13 kts | 50° |
| 2026-05-01 14:34 | 32.88059 | -97.03008 | 572 ft | 10 kts | 1° |
| 2026-05-01 14:35 | 32.88304 | -97.03005 | 575 ft | 62 kts | 0° |
| 2026-05-01 14:35 | 32.88896 | -97.03002 | 574 ft | 106 kts | 0° |
| 2026-05-01 14:35 | 32.89763 | -97.02996 | 575 ft | 140 kts | 1° |
| 2026-05-01 14:35 | 32.90790 | -97.02988 | 737 ft | 153 kts | 4° |
| 2026-05-01 14:36 | 32.91858 | -97.02977 | 1122 ft | 151 kts | 3° |
| 2026-05-01 14:36 | 32.92918 | -97.02962 | 1485 ft | 155 kts | 4° |
| 2026-05-01 14:36 | 32.93987 | -97.03148 | 1892 ft | 160 kts | 345° |
| 2026-05-01 14:36 | 32.95015 | -97.03810 | 2190 ft | 183 kts | 334° |
| 2026-05-01 14:37 | 32.96124 | -97.04728 | 2512 ft | 202 kts | 331° |
| 2026-05-01 14:37 | 32.97308 | -97.05720 | 3002 ft | 212 kts | 334° |
| 2026-05-01 14:37 | 32.98647 | -97.06623 | 3464 ft | 230 kts | 339° |
| 2026-05-01 14:37 | 33.00097 | -97.07583 | 3954 ft | 251 kts | 326° |
| 2026-05-01 14:38 | 33.01094 | -97.09343 | 4482 ft | 274 kts | 288° |
| 2026-05-01 14:38 | 33.01239 | -97.11615 | 5298 ft | 277 kts | 268° |
| 2026-05-01 14:38 | 33.01086 | -97.13903 | 6158 ft | 276 kts | 265° |
| 2026-05-01 14:38 | 33.00886 | -97.16176 | 6968 ft | 276 kts | 264° |
| 2026-05-01 14:39 | 33.00636 | -97.18468 | 7580 ft | 284 kts | 262° |
| 2026-05-01 14:39 | 33.00349 | -97.20798 | 8340 ft | 283 kts | 263° |
| 2026-05-01 14:39 | 33.00052 | -97.23075 | 9209 ft | 279 kts | 258° |
| 2026-05-01 14:39 | 32.99261 | -97.25185 | 10007 ft | 282 kts | 240° |
| 2026-05-01 14:40 | 32.98142 | -97.27104 | 10704 ft | 283 kts | 235° |
| 2026-05-01 14:40 | 32.96914 | -97.28951 | 11401 ft | 284 kts | 233° |
| 2026-05-01 14:40 | 32.95664 | -97.30767 | 12106 ft | 283 kts | 233° |
| 2026-05-01 14:40 | 32.94400 | -97.32602 | 12569 ft | 294 kts | 234° |
| 2026-05-01 14:41 | 32.93108 | -97.34540 | 13074 ft | 299 kts | 235° |
| 2026-05-01 14:41 | 32.91829 | -97.36489 | 13846 ft | 298 kts | 236° |
| 2026-05-01 14:41 | 32.90558 | -97.38437 | 14510 ft | 298 kts | 236° |
| 2026-05-01 14:41 | 32.89338 | -97.40314 | 15098 ft | 299 kts | 236° |
| 2026-05-01 14:42 | 32.88061 | -97.42273 | 15686 ft | 300 kts | 237° |
| 2026-05-01 14:42 | 32.86777 | -97.44246 | 16256 ft | 302 kts | 237° |
| 2026-05-01 14:42 | 32.85488 | -97.46223 | 16833 ft | 303 kts | 236° |
| 2026-05-01 14:42 | 32.84195 | -97.48208 | 17382 ft | 305 kts | 237° |
| 2026-05-01 14:43 | 32.82890 | -97.50209 | 17847 ft | 307 kts | 237° |
| 2026-05-01 14:43 | 32.81608 | -97.52174 | 18345 ft | 308 kts | 237° |
| 2026-05-01 14:43 | 32.80292 | -97.54189 | 18811 ft | 309 kts | 237° |
| 2026-05-01 14:43 | 32.78974 | -97.56208 | 19285 ft | 310 kts | 236° |
| 2026-05-01 14:44 | 32.77654 | -97.58233 | 19771 ft | 310 kts | 236° |
| 2026-05-01 14:44 | 32.75012 | -97.62288 | 20722 ft | 311 kts | 235° |
| 2026-05-01 14:44 | 32.73680 | -97.64320 | 21168 ft | 312 kts | 235° |
| 2026-05-01 14:45 | 32.72349 | -97.66352 | 21602 ft | 312 kts | 234° |
| 2026-05-01 14:45 | 32.69670 | -97.70444 | 22430 ft | 315 kts | 234° |
| 2026-05-01 14:45 | 32.68468 | -97.72604 | 22822 ft | 315 kts | 248° |
| 2026-05-01 14:46 | 32.67893 | -97.75128 | 23272 ft | 318 kts | 256° |
| 2026-05-01 14:46 | 32.67244 | -97.80337 | 23990 ft | 323 kts | 260° |
| 2026-05-01 14:46 | 32.67042 | -97.82968 | 24307 ft | 325 kts | 261° |
| 2026-05-01 14:47 | 32.66849 | -97.85644 | 24616 ft | 326 kts | 261° |
| 2026-05-01 14:47 | 32.66664 | -97.88333 | 24921 ft | 328 kts | 261° |
| 2026-05-01 14:47 | 32.66486 | -97.91035 | 25226 ft | 329 kts | 261° |
| 2026-05-01 14:48 | 32.66087 | -97.96462 | 25795 ft | 331 kts | 260° |
| 2026-05-01 14:48 | 32.65873 | -97.99187 | 26040 ft | 334 kts | 260° |
| 2026-05-01 14:48 | 32.65436 | -98.04697 | 26627 ft | 336 kts | 260° |
| 2026-05-01 14:49 | 32.64999 | -98.10222 | 27235 ft | 339 kts | 259° |
| 2026-05-01 14:49 | 32.64554 | -98.15809 | 28005 ft | 341 kts | 260° |
| 2026-05-01 14:50 | 32.64254 | -98.19569 | 28444 ft | 343 kts | 260° |
| 2026-05-01 14:50 | 32.63635 | -98.27100 | 29074 ft | 345 kts | 259° |
| 2026-05-01 14:51 | 32.63404 | -98.29940 | 29313 ft | 347 kts | 259° |
| 2026-05-01 14:51 | 32.62941 | -98.35648 | 29766 ft | 348 kts | 259° |
| 2026-05-01 14:52 | 32.62488 | -98.41370 | 30206 ft | 349 kts | 259° |
| 2026-05-01 14:52 | 32.62253 | -98.44238 | 30403 ft | 350 kts | 258° |
| 2026-05-01 14:52 | 32.61778 | -98.49999 | 30739 ft | 352 kts | 258° |
| 2026-05-01 14:53 | 32.61540 | -98.52891 | 30880 ft | 353 kts | 258° |
| 2026-05-01 14:53 | 32.61299 | -98.55789 | 31035 ft | 353 kts | 258° |
| 2026-05-01 14:53 | 32.61059 | -98.58666 | 31370 ft | 349 kts | 258° |
| 2026-05-01 14:53 | 32.60820 | -98.61529 | 31536 ft | 348 kts | 258° |
| 2026-05-01 14:54 | 32.60584 | -98.64358 | 31666 ft | 349 kts | 258° |
| 2026-05-01 14:54 | 32.60342 | -98.67227 | 31794 ft | 350 kts | 258° |
| 2026-05-01 14:54 | 32.60100 | -98.70094 | 31988 ft | 349 kts | 258° |
| 2026-05-01 14:54 | 32.59859 | -98.72953 | 32215 ft | 348 kts | 258° |
| 2026-05-01 14:55 | 32.59629 | -98.75677 | 32412 ft | 346 kts | 259° |
| 2026-05-01 14:55 | 32.59388 | -98.78516 | 32588 ft | 346 kts | 259° |
| 2026-05-01 14:55 | 32.59146 | -98.81350 | 32771 ft | 345 kts | 259° |
| 2026-05-01 14:55 | 32.58906 | -98.84178 | 32951 ft | 344 kts | 258° |
| 2026-05-01 14:56 | 32.58664 | -98.86999 | 33116 ft | 343 kts | 258° |
| 2026-05-01 14:56 | 32.58423 | -98.89821 | 33272 ft | 343 kts | 258° |
| 2026-05-01 14:56 | 32.58181 | -98.92635 | 33416 ft | 342 kts | 258° |
| 2026-05-01 14:56 | 32.57942 | -98.95408 | 33553 ft | 342 kts | 258° |
| 2026-05-01 14:57 | 32.57699 | -98.98215 | 33709 ft | 341 kts | 258° |
| 2026-05-01 14:57 | 32.57214 | -99.03802 | 34005 ft | 340 kts | 258° |
| 2026-05-01 14:57 | 32.56970 | -99.06591 | 34101 ft | 340 kts | 258° |
| 2026-05-01 14:58 | 32.56727 | -99.09383 | 34223 ft | 340 kts | 258° |
| 2026-05-01 14:58 | 32.56482 | -99.12163 | 34375 ft | 338 kts | 258° |
| 2026-05-01 14:58 | 32.55995 | -99.17699 | 34535 ft | 337 kts | 258° |
| 2026-05-01 14:59 | 32.55509 | -99.23185 | 34676 ft | 337 kts | 258° |
| 2026-05-01 14:59 | 32.55021 | -99.28711 | 34825 ft | 337 kts | 258° |
| 2026-05-01 15:00 | 32.54552 | -99.34232 | 35022 ft | 337 kts | 258° |
| 2026-05-01 15:00 | 32.54323 | -99.37002 | 35114 ft | 337 kts | 259° |
| 2026-05-01 15:01 | 32.53973 | -99.42539 | 35351 ft | 334 kts | 260° |
| 2026-05-01 15:01 | 32.53809 | -99.45278 | 35519 ft | 332 kts | 260° |
| 2026-05-01 15:01 | 32.53646 | -99.48010 | 35592 ft | 333 kts | 260° |
| 2026-05-01 15:02 | 32.53313 | -99.53482 | 35689 ft | 333 kts | 260° |
| 2026-05-01 15:02 | 32.52980 | -99.58961 | 35771 ft | 334 kts | 261° |
| 2026-05-01 15:03 | 32.52646 | -99.64418 | 35867 ft | 334 kts | 260° |
| 2026-05-01 15:03 | 32.52307 | -99.69902 | 36001 ft | 333 kts | 260° |
| 2026-05-01 15:04 | 32.51967 | -99.75366 | 36057 ft | 333 kts | 260° |
| 2026-05-01 15:04 | 32.51623 | -99.80854 | 36065 ft | 335 kts | 260° |
| 2026-05-01 15:05 | 32.51273 | -99.86364 | 36100 ft | 340 kts | 261° |
| 2026-05-01 15:05 | 32.50914 | -99.91999 | 36078 ft | 346 kts | 261° |
| 2026-05-01 15:06 | 32.50548 | -99.97729 | 36069 ft | 351 kts | 261° |
| 2026-05-01 15:06 | 32.50174 | -100.03506 | 36066 ft | 356 kts | 261° |
| 2026-05-01 15:07 | 32.49796 | -100.09363 | 36056 ft | 355 kts | 261° |
| 2026-05-01 15:07 | 32.49422 | -100.15105 | 36038 ft | 351 kts | 261° |
| 2026-05-01 15:08 | 32.49043 | -100.20849 | 36044 ft | 348 kts | 261° |
| 2026-05-01 15:08 | 32.48664 | -100.26569 | 36038 ft | 348 kts | 261° |
| 2026-05-01 15:09 | 32.48280 | -100.32300 | 36114 ft | 349 kts | 261° |
| 2026-05-01 15:09 | 32.47908 | -100.38003 | 36118 ft | 349 kts | 261° |
| 2026-05-01 15:10 | 32.47527 | -100.43729 | 36107 ft | 349 kts | 261° |
| 2026-05-01 15:10 | 32.47023 | -100.51352 | 36105 ft | 348 kts | 261° |
| 2026-05-01 15:11 | 32.46381 | -100.60847 | 36102 ft | 347 kts | 261° |
| 2026-05-01 15:12 | 32.46058 | -100.65625 | 36087 ft | 347 kts | 261° |
| 2026-05-01 15:12 | 32.45469 | -100.74195 | 36057 ft | 350 kts | 261° |
| 2026-05-01 15:14 | 32.44466 | -100.88648 | 36036 ft | 355 kts | 261° |
| 2026-05-01 15:14 | 32.43853 | -100.97377 | 36037 ft | 357 kts | 261° |
| 2026-05-01 15:15 | 32.43015 | -101.09162 | 36025 ft | 361 kts | 261° |
| 2026-05-01 15:16 | 32.42161 | -101.21008 | 36006 ft | 360 kts | 261° |
| 2026-05-01 15:18 | 32.41088 | -101.35676 | 35996 ft | 358 kts | 261° |
| 2026-05-01 15:19 | 32.40218 | -101.47409 | 36000 ft | 358 kts | 261° |
| 2026-05-01 15:19 | 32.39557 | -101.56224 | 36001 ft | 358 kts | 261° |
| 2026-05-01 15:20 | 32.38887 | -101.65039 | 36003 ft | 359 kts | 261° |
| 2026-05-01 15:21 | 32.38439 | -101.70894 | 36001 ft | 359 kts | 262° |
| 2026-05-01 15:21 | 32.37985 | -101.76788 | 35995 ft | 359 kts | 262° |
| 2026-05-01 15:22 | 32.37302 | -101.85624 | 36001 ft | 359 kts | 261° |
| 2026-05-01 15:22 | 32.36847 | -101.91477 | 36003 ft | 359 kts | 261° |
| 2026-05-01 15:23 | 32.36387 | -101.97364 | 36000 ft | 360 kts | 261° |
| 2026-05-01 15:23 | 32.35921 | -102.03272 | 36004 ft | 361 kts | 261° |
| 2026-05-01 15:24 | 32.35448 | -102.09205 | 36002 ft | 362 kts | 262° |
| 2026-05-01 15:24 | 32.34972 | -102.15151 | 36006 ft | 364 kts | 262° |
| 2026-05-01 15:25 | 32.34491 | -102.21129 | 36010 ft | 366 kts | 262° |
| 2026-05-01 15:25 | 32.34007 | -102.27128 | 36012 ft | 367 kts | 261° |
| 2026-05-01 15:26 | 32.33522 | -102.33115 | 36012 ft | 369 kts | 262° |
| 2026-05-01 15:26 | 32.33027 | -102.39167 | 36018 ft | 371 kts | 262° |
| 2026-05-01 15:27 | 32.32524 | -102.45264 | 36019 ft | 372 kts | 261° |
| 2026-05-01 15:28 | 32.31764 | -102.54440 | 36019 ft | 375 kts | 261° |
| 2026-05-01 15:28 | 32.31252 | -102.60595 | 36013 ft | 377 kts | 261° |
| 2026-05-01 15:29 | 32.30473 | -102.69838 | 36015 ft | 380 kts | 261° |
| 2026-05-01 15:30 | 32.29413 | -102.82339 | 36036 ft | 385 kts | 262° |
| 2026-05-01 15:31 | 32.27779 | -103.01268 | 36058 ft | 386 kts | 262° |
| 2026-05-01 15:32 | 32.26679 | -103.13846 | 35950 ft | 381 kts | 262° |
| 2026-05-01 15:34 | 32.25053 | -103.32160 | 35930 ft | 366 kts | 262° |